createdAt,value
2017-12-24T00:00:17.211Z,12.56
2017-12-24T00:01:27.326Z,12.61
2017-12-24T00:02:39.803Z,12.52
2017-12-24T00:03:49.992Z,12.55
2017-12-24T00:04:59.889Z,12.47
2017-12-24T00:06:09.447Z,12.4
2017-12-24T00:07:19.376Z,12.37
2017-12-24T00:08:29.196Z,12.37
2017-12-24T00:09:39.294Z,12.23
2017-12-24T00:10:49.404Z,12.25
2017-12-24T00:11:59.634Z,12.33
2017-12-24T00:13:09.452Z,12.2
2017-12-24T00:14:19.614Z,12.22
2017-12-24T00:15:29.890Z,12.25
2017-12-24T00:16:39.713Z,12.16
2017-12-24T00:17:49.831Z,12.25
2017-12-24T00:19:00.181Z,12.2
2017-12-24T00:20:10.279Z,12.2
2017-12-24T00:21:20.410Z,12.19
2017-12-24T00:22:30.498Z,12.13
2017-12-24T00:23:40.607Z,12.13
2017-12-24T00:24:50.522Z,12.16
2017-12-24T00:26:00.604Z,12.16
2017-12-24T00:27:10.448Z,12.25
2017-12-24T00:28:21.374Z,12.18
2017-12-24T00:29:31.451Z,12.28
2017-12-24T00:30:41.315Z,12.31
2017-12-24T00:31:51.415Z,12.26
2017-12-24T00:33:01.518Z,12.36
2017-12-24T00:34:11.783Z,12.33
2017-12-24T00:35:22.704Z,12.37
2017-12-24T00:36:32.994Z,12.34
2017-12-24T00:37:44.309Z,12.36
2017-12-24T00:38:54.517Z,12.4
2017-12-24T00:40:04.481Z,12.38
2017-12-24T00:41:14.568Z,12.31
2017-12-24T00:42:24.736Z,12.33
2017-12-24T00:43:34.545Z,12.34
2017-12-24T00:44:44.649Z,12.33
2017-12-24T00:45:54.859Z,12.34
2017-12-24T00:47:04.837Z,12.31
2017-12-24T00:48:14.924Z,12.25
2017-12-24T00:49:24.777Z,12.28
2017-12-24T00:50:34.859Z,12.25
2017-12-24T00:51:44.931Z,12.2
2017-12-24T00:52:55.011Z,12.19
2017-12-24T00:54:04.892Z,12.22
2017-12-24T00:55:14.994Z,12.16
2017-12-24T00:56:25.178Z,12.23
2017-12-24T00:57:35.329Z,12.11
2017-12-24T00:58:45.406Z,12.2
2017-12-24T00:59:55.214Z,12.22
2017-12-24T01:01:05.059Z,12.08
2017-12-24T01:02:15.189Z,12.15
2017-12-24T01:03:25.381Z,12.19
2017-12-24T01:04:35.528Z,12.13
2017-12-24T01:05:45.648Z,12.18
2017-12-24T01:06:55.782Z,12.18
2017-12-24T01:08:05.903Z,12.05
2017-12-24T01:09:16.006Z,12.05
2017-12-24T01:10:26.931Z,11.94
2017-12-24T01:11:36.989Z,12.04
2017-12-24T01:12:47.638Z,11.89
2017-12-24T01:13:57.684Z,11.98
2017-12-24T01:15:07.749Z,11.91
2017-12-24T01:16:17.801Z,11.91
2017-12-24T01:17:27.586Z,11.94
2017-12-24T01:18:38.987Z,11.94
2017-12-24T01:19:49.029Z,11.91
2017-12-24T01:20:58.824Z,11.88
2017-12-24T01:22:08.876Z,11.84
2017-12-24T01:23:18.939Z,11.79
2017-12-24T01:24:28.745Z,11.84
2017-12-24T01:25:38.803Z,11.89
2017-12-24T01:26:48.643Z,11.81
2017-12-24T01:27:58.436Z,11.82
2017-12-24T01:29:08.228Z,11.79
2017-12-24T01:30:18.285Z,11.82
2017-12-24T01:31:28.389Z,11.82
2017-12-24T01:32:38.449Z,11.81
2017-12-24T01:33:47.985Z,11.82
2017-12-24T01:34:57.804Z,11.79
2017-12-24T01:36:07.607Z,11.73
2017-12-24T01:37:18.573Z,11.75
2017-12-24T01:38:28.376Z,11.75
2017-12-24T01:39:38.177Z,11.79
2017-12-24T01:40:48.528Z,11.73
2017-12-24T01:41:58.572Z,11.75
2017-12-24T01:43:08.624Z,11.75
2017-12-24T01:44:18.659Z,11.79
2017-12-24T01:45:28.718Z,11.81
2017-12-24T01:46:38.508Z,11.78
2017-12-24T01:47:48.579Z,11.66
2017-12-24T01:48:58.382Z,11.78
2017-12-24T01:50:08.189Z,11.7
2017-12-24T01:51:18.231Z,11.66
2017-12-24T01:52:28.340Z,11.67
2017-12-24T01:53:38.402Z,11.66
2017-12-24T01:54:48.454Z,11.71
2017-12-24T01:55:58.310Z,11.67
2017-12-24T01:57:08.361Z,11.64
2017-12-24T01:58:18.418Z,11.61
2017-12-24T01:59:28.489Z,11.6
2017-12-24T02:00:38.283Z,11.6
2017-12-24T02:01:48.082Z,11.61
2017-12-24T02:02:58.136Z,11.64
2017-12-24T02:04:08.194Z,11.61
2017-12-24T02:05:18.249Z,11.49
2017-12-24T02:06:28.034Z,11.56
2017-12-24T02:07:38.094Z,11.51
2017-12-24T02:08:48.155Z,11.51
2017-12-24T02:09:58.280Z,11.48
2017-12-24T02:11:08.060Z,11.53
2017-12-24T02:12:18.122Z,11.45
2017-12-24T02:13:28.183Z,11.45
2017-12-24T02:14:38.239Z,11.51
2017-12-24T02:15:48.312Z,11.52
2017-12-24T02:16:58.371Z,11.52
2017-12-24T02:18:08.236Z,11.51
2017-12-24T02:19:18.297Z,11.48
2017-12-24T02:20:28.360Z,11.45
2017-12-24T02:21:38.157Z,11.45
2017-12-24T02:22:49.710Z,11.43
2017-12-24T02:23:59.768Z,11.46
2017-12-24T02:25:09.671Z,11.39
2017-12-24T02:26:19.470Z,11.43
2017-12-24T02:27:29.524Z,11.38
2017-12-24T02:28:39.591Z,11.35
2017-12-24T02:29:49.732Z,11.42
2017-12-24T02:30:59.814Z,11.34
2017-12-24T02:32:09.881Z,11.39
2017-12-24T02:33:19.965Z,11.38
2017-12-24T02:34:29.760Z,11.41
2017-12-24T02:35:39.561Z,11.34
2017-12-24T02:36:49.403Z,11.45
2017-12-24T02:37:59.466Z,11.42
2017-12-24T02:39:09.522Z,11.38
2017-12-24T02:40:19.575Z,11.35
2017-12-24T02:41:29.637Z,11.33
2017-12-24T02:42:39.703Z,11.39
2017-12-24T02:43:49.773Z,11.33
2017-12-24T02:45:00.415Z,11.31
2017-12-24T02:46:09.974Z,11.26
2017-12-24T02:47:19.773Z,11.31
2017-12-24T02:48:29.950Z,11.26
2017-12-24T02:49:40.003Z,11.23
2017-12-24T02:50:50.075Z,11.33
2017-12-24T02:52:00.127Z,11.26
2017-12-24T02:53:10.198Z,11.31
2017-12-24T02:54:25.665Z,11.31
2017-12-24T02:55:35.721Z,11.24
2017-12-24T02:56:45.265Z,11.24
2017-12-24T02:57:55.331Z,11.27
2017-12-24T02:59:05.136Z,11.23
2017-12-24T03:00:14.954Z,11.13
2017-12-24T03:01:24.750Z,11.18
2017-12-24T03:02:36.171Z,11.08
2017-12-24T03:34:05.501Z,8.82
2017-12-24T03:35:15.567Z,8.83
2017-12-24T03:36:25.617Z,8.76
2017-12-24T03:37:35.660Z,8.86
2017-12-24T03:38:45.708Z,8.9
2017-12-24T03:39:55.755Z,9.05
2017-12-24T03:41:05.804Z,9.11
2017-12-24T03:42:15.853Z,9.3
2017-12-24T03:43:25.893Z,9.37
2017-12-24T03:44:35.975Z,9.47
2017-12-24T03:45:46.082Z,9.63
2017-12-24T03:46:56.132Z,9.72
2017-12-24T03:48:05.930Z,9.92
2017-12-24T03:49:15.723Z,10.03
2017-12-24T03:50:25.840Z,10.14
2017-12-24T03:51:35.929Z,10.31
2017-12-24T03:52:45.464Z,10.33
2017-12-24T03:53:55.258Z,10.46
2017-12-24T03:55:05.037Z,10.52
2017-12-24T03:56:15.088Z,10.57
2017-12-24T03:57:24.926Z,10.67
2017-12-24T03:58:34.998Z,10.66
2017-12-24T03:59:46.344Z,10.66
2017-12-24T04:00:56.405Z,10.7
2017-12-24T04:02:06.182Z,10.76
2017-12-24T04:03:16.245Z,10.79
2017-12-24T04:04:26.030Z,10.77
2017-12-24T04:05:35.573Z,10.84
2017-12-24T04:06:45.639Z,10.8
2017-12-24T04:07:55.481Z,10.87
2017-12-24T04:09:05.590Z,10.8
2017-12-24T04:10:15.629Z,10.77
2017-12-24T04:11:25.688Z,10.79
2017-12-24T04:12:35.768Z,10.77
2017-12-24T04:13:45.563Z,10.84
2017-12-24T04:14:55.354Z,10.9
2017-12-24T04:16:05.422Z,10.77
2017-12-24T04:17:15.215Z,10.85
2017-12-24T04:18:25.273Z,10.8
2017-12-24T04:19:35.327Z,10.8
2017-12-24T04:20:45.386Z,10.85
2017-12-24T04:21:55.433Z,10.8
2017-12-24T04:23:05.236Z,10.8
2017-12-24T04:24:15.293Z,10.87
2017-12-24T04:25:25.093Z,10.79
2017-12-24T04:26:35.148Z,10.75
2017-12-24T04:27:45.215Z,10.83
2017-12-24T04:28:55.248Z,10.9
2017-12-24T04:30:05.045Z,10.77
2017-12-24T04:31:15.097Z,10.83
2017-12-24T04:32:24.890Z,10.79
2017-12-24T04:33:34.694Z,10.83
2017-12-24T04:34:44.742Z,10.77
2017-12-24T04:35:54.805Z,10.85
2017-12-24T04:37:04.848Z,10.8
2017-12-24T04:38:14.901Z,10.87
2017-12-24T04:39:24.701Z,10.84
2017-12-24T04:40:34.747Z,10.83
2017-12-24T04:41:44.801Z,10.97
2017-12-24T04:42:54.854Z,10.9
2017-12-24T04:44:04.655Z,10.84
2017-12-24T04:45:14.697Z,10.8
2017-12-24T04:46:24.744Z,10.77
2017-12-24T04:47:34.545Z,10.83
2017-12-24T04:48:44.594Z,10.97
2017-12-24T04:49:54.165Z,10.9
2017-12-24T04:51:04.268Z,10.84
2017-12-24T04:52:14.058Z,10.87
2017-12-24T04:53:24.119Z,10.88
2017-12-24T04:54:34.170Z,10.9
2017-12-24T04:55:43.963Z,10.91
2017-12-24T04:56:53.755Z,10.84
2017-12-24T04:58:03.560Z,10.92
2017-12-24T04:59:13.598Z,10.83
2017-12-24T05:00:23.394Z,10.85
2017-12-24T05:01:32.938Z,10.84
2017-12-24T05:02:42.999Z,10.87
2017-12-24T05:03:52.790Z,10.9
2017-12-24T05:05:02.852Z,10.9
2017-12-24T05:06:12.639Z,10.92
2017-12-24T05:07:22.435Z,10.92
2017-12-24T05:08:32.495Z,10.85
2017-12-24T05:09:42.548Z,10.91
2017-12-24T05:10:52.365Z,10.87
2017-12-24T05:12:02.516Z,10.85
2017-12-24T05:13:13.077Z,10.83
2017-12-24T05:14:23.157Z,10.87
2017-12-24T05:15:33.194Z,10.83
2017-12-24T05:16:42.985Z,10.85
2017-12-24T05:17:53.031Z,10.91
2017-12-24T05:19:03.098Z,10.84
2017-12-24T05:20:13.148Z,10.9
2017-12-24T05:21:22.937Z,10.95
2017-12-24T05:22:32.997Z,11
2017-12-24T05:23:42.785Z,11.02
2017-12-24T05:24:52.380Z,11
2017-12-24T05:26:02.436Z,11
2017-12-24T05:27:12.487Z,10.98
2017-12-24T05:28:22.537Z,10.88
2017-12-24T05:29:32.589Z,10.94
2017-12-24T05:30:42.167Z,10.94
2017-12-24T05:31:51.978Z,10.98
2017-12-24T05:33:01.499Z,10.95
2017-12-24T05:34:11.025Z,10.92
2017-12-24T05:35:20.815Z,10.92
2017-12-24T05:36:30.924Z,10.92
2017-12-24T05:37:40.984Z,10.92
2017-12-24T05:38:51.053Z,10.92
2017-12-24T05:40:01.090Z,10.92
2017-12-24T05:41:11.121Z,10.94
2017-12-24T05:42:20.920Z,10.98
2017-12-24T05:43:30.705Z,10.88
2017-12-24T05:44:40.251Z,10.88
2017-12-24T05:45:50.393Z,10.91
2017-12-24T05:47:00.445Z,10.88
2017-12-24T05:48:10.542Z,10.92
2017-12-24T05:49:20.593Z,10.92
2017-12-24T05:50:30.395Z,10.84
2017-12-24T05:51:40.452Z,10.9
2017-12-24T05:52:50.511Z,10.92
2017-12-24T05:54:00.571Z,10.84
2017-12-24T05:55:10.381Z,10.88
2017-12-24T05:56:20.174Z,10.87
2017-12-24T05:57:29.972Z,10.9
2017-12-24T05:58:40.024Z,10.85
2017-12-24T05:59:49.853Z,10.79
2017-12-24T06:00:59.643Z,10.88
2017-12-24T06:02:10.743Z,10.9
2017-12-24T06:03:20.800Z,10.8
2017-12-24T06:04:30.861Z,10.85
2017-12-24T06:05:40.927Z,10.87
2017-12-24T06:06:51.015Z,10.88
2017-12-24T06:08:01.076Z,10.85
2017-12-24T06:09:11.125Z,10.84
2017-12-24T06:10:21.176Z,10.85
2017-12-24T06:11:31.227Z,10.88
2017-12-24T06:12:41.295Z,10.84
2017-12-24T06:13:51.352Z,10.88
2017-12-24T06:15:01.442Z,10.73
2017-12-24T06:16:11.514Z,10.76
2017-12-24T06:17:21.102Z,10.76
2017-12-24T06:18:31.142Z,10.85
2017-12-24T06:19:41.203Z,10.84
2017-12-24T06:20:51.249Z,10.87
2017-12-24T06:22:00.520Z,10.8
2017-12-24T06:23:10.344Z,10.88
2017-12-24T06:24:20.137Z,10.83
2017-12-24T06:25:30.192Z,10.75
2017-12-24T06:26:39.992Z,10.76
2017-12-24T06:27:50.591Z,10.8
2017-12-24T06:29:00.384Z,10.7
2017-12-24T06:30:10.449Z,10.84
2017-12-24T06:31:20.502Z,10.8
2017-12-24T06:32:30.556Z,10.77
2017-12-24T06:33:40.610Z,10.84
2017-12-24T06:34:50.724Z,10.87
2017-12-24T06:36:00.779Z,10.83
2017-12-24T06:37:10.324Z,10.84
2017-12-24T06:38:20.977Z,10.75
2017-12-24T06:39:30.780Z,10.83
2017-12-24T06:40:40.627Z,10.85
2017-12-24T06:41:50.433Z,10.84
2017-12-24T06:43:00.495Z,10.85
2017-12-24T06:44:10.551Z,10.83
2017-12-24T06:45:20.603Z,10.85
2017-12-24T06:46:30.660Z,10.85
2017-12-24T06:47:40.711Z,10.83
2017-12-24T06:48:50.508Z,10.95
2017-12-24T06:50:00.549Z,11.03
2017-12-24T06:51:11.352Z,10.9
2017-12-24T06:52:21.458Z,10.84
2017-12-24T06:53:31.519Z,10.83
2017-12-24T06:54:41.324Z,10.8
2017-12-24T06:55:51.381Z,10.87
2017-12-24T06:57:00.916Z,10.88
2017-12-24T06:58:10.975Z,10.91
2017-12-24T06:59:20.764Z,10.94
2017-12-24T07:00:30.826Z,10.9
2017-12-24T07:01:40.906Z,11.03
2017-12-24T07:02:50.971Z,10.87
2017-12-24T07:04:00.758Z,10.95
2017-12-24T07:05:10.568Z,11.06
2017-12-24T07:06:20.627Z,11.02
2017-12-24T07:07:30.424Z,11.02
2017-12-24T07:08:40.484Z,11.12
2017-12-24T07:09:50.540Z,11.2
2017-12-24T07:11:00.083Z,11.09
2017-12-24T07:12:10.143Z,11.16
2017-12-24T07:13:20.202Z,11.28
2017-12-24T07:14:30.265Z,11.31
2017-12-24T07:15:40.368Z,11.23
2017-12-24T07:16:50.431Z,11.3
2017-12-24T07:18:00.477Z,11.3
2017-12-24T07:19:10.539Z,11.33
2017-12-24T07:20:20.612Z,11.28
2017-12-24T07:21:30.675Z,11.42
2017-12-24T07:22:41.270Z,11.46
2017-12-24T07:23:51.323Z,11.45
2017-12-24T07:25:01.404Z,11.49
2017-12-24T07:26:11.199Z,11.49
2017-12-24T07:27:22.414Z,11.61
2017-12-24T07:28:32.216Z,11.66
2017-12-24T07:29:41.747Z,11.76
2017-12-24T07:30:51.791Z,11.75
2017-12-24T07:32:01.863Z,11.75
2017-12-24T07:33:11.189Z,11.84
2017-12-24T07:34:20.723Z,11.73
2017-12-24T07:35:30.782Z,11.82
2017-12-24T07:36:40.836Z,11.79
2017-12-24T07:37:50.888Z,11.95
2017-12-24T07:39:00.945Z,11.94
2017-12-24T07:40:10.735Z,11.89
2017-12-24T07:41:20.797Z,11.88
2017-12-24T07:42:30.904Z,12.03
2017-12-24T07:43:40.963Z,12.08
2017-12-24T07:44:51.018Z,12.11
2017-12-24T07:46:00.558Z,12.15
2017-12-24T07:47:10.622Z,12.22
2017-12-24T07:48:20.684Z,12.19
2017-12-24T07:49:30.745Z,12.19
2017-12-24T07:50:40.906Z,12.28
2017-12-24T07:51:51.002Z,12.22
2017-12-24T07:53:00.799Z,12.29
2017-12-24T07:54:10.849Z,12.22
2017-12-24T07:55:21.035Z,12.23
2017-12-24T07:56:31.083Z,12.1
2017-12-24T07:57:40.608Z,12.08
2017-12-24T07:58:50.668Z,12.1
2017-12-24T08:00:00.802Z,12
2017-12-24T08:01:10.890Z,11.91
2017-12-24T08:02:20.951Z,11.97
2017-12-24T08:03:31.041Z,11.85
2017-12-24T08:04:40.837Z,11.79
2017-12-24T08:05:50.655Z,11.82
2017-12-24T08:07:00.446Z,11.76
2017-12-24T08:08:10.619Z,11.75
2017-12-24T08:09:20.686Z,11.73
2017-12-24T08:10:30.484Z,11.71
2017-12-24T08:11:40.539Z,11.71
2017-12-24T08:12:50.592Z,11.66
2017-12-24T08:14:00.721Z,11.68
2017-12-24T08:15:10.796Z,11.66
2017-12-24T08:16:20.847Z,11.7
2017-12-24T08:17:30.908Z,11.67
2017-12-24T08:18:40.985Z,11.73
2017-12-24T08:19:50.824Z,11.64
2017-12-24T08:21:00.628Z,11.7
2017-12-24T08:22:10.733Z,11.68
2017-12-24T08:23:20.528Z,11.64
2017-12-24T08:24:30.593Z,11.7
2017-12-24T08:25:41.278Z,11.68
2017-12-24T08:26:51.342Z,11.67
2017-12-24T08:28:02.037Z,11.67
2017-12-24T08:29:11.845Z,11.61
2017-12-24T08:30:21.914Z,11.61
2017-12-24T08:31:32.008Z,11.61
2017-12-24T08:32:41.566Z,11.64
2017-12-24T08:33:51.616Z,11.61
2017-12-24T08:35:01.417Z,11.61
2017-12-24T08:36:11.474Z,11.66
2017-12-24T08:37:21.514Z,11.59
2017-12-24T08:38:31.588Z,11.59
2017-12-24T08:39:41.645Z,11.63
2017-12-24T08:40:52.071Z,11.61
2017-12-24T08:42:02.155Z,11.57
2017-12-24T08:43:12.216Z,11.6
2017-12-24T08:44:23.343Z,11.67
2017-12-24T08:45:33.478Z,11.57
2017-12-24T08:46:44.745Z,11.6
2017-12-24T08:47:54.566Z,11.64
2017-12-24T08:49:04.686Z,11.6
2017-12-24T08:50:14.745Z,11.61
2017-12-24T08:51:24.339Z,11.64
2017-12-24T08:52:34.408Z,11.66
2017-12-24T08:53:44.464Z,11.63
2017-12-24T08:54:54.532Z,11.61
2017-12-24T08:56:04.341Z,11.6
2017-12-24T08:57:14.431Z,11.66
2017-12-24T08:58:24.504Z,11.7
2017-12-24T08:59:34.547Z,11.68
2017-12-24T09:00:44.631Z,11.68
2017-12-24T09:01:54.719Z,11.63
2017-12-24T09:03:04.535Z,11.64
2017-12-24T09:04:14.559Z,11.73
2017-12-24T09:05:24.699Z,11.71
2017-12-24T09:06:35.647Z,11.73
2017-12-24T09:07:45.710Z,11.76
2017-12-24T09:08:55.527Z,11.79
2017-12-24T09:10:06.787Z,11.75
2017-12-24T09:11:16.598Z,11.75
2017-12-24T09:12:26.494Z,11.76
2017-12-24T09:13:36.313Z,11.75
2017-12-24T09:14:46.391Z,11.79
2017-12-24T09:15:57.397Z,11.88
2017-12-24T09:17:08.662Z,12.04
2017-12-24T09:18:18.776Z,12.08
2017-12-24T09:19:28.916Z,12.22
2017-12-24T09:20:38.709Z,12.47
2017-12-24T09:21:48.814Z,12.55
2017-12-24T09:22:58.370Z,12.61
2017-12-24T09:24:08.194Z,12.88
2017-12-24T09:25:17.992Z,12.96
2017-12-24T09:26:27.797Z,13.03
2017-12-24T09:27:37.971Z,13.11
2017-12-24T09:28:48.034Z,13.17
2017-12-24T09:29:58.177Z,13.21
2017-12-24T09:31:08.279Z,13.36
2017-12-24T09:32:18.409Z,13.42
2017-12-24T09:33:28.484Z,13.42
2017-12-24T09:34:38.667Z,13.53
2017-12-24T09:35:48.855Z,13.48
2017-12-24T09:36:58.957Z,13.57
2017-12-24T09:38:09.088Z,13.54
2017-12-24T09:39:18.664Z,13.7
2017-12-24T09:40:28.768Z,13.73
2017-12-24T09:41:38.885Z,13.79
2017-12-24T09:42:48.978Z,13.83
2017-12-24T09:43:59.093Z,13.94
2017-12-24T09:45:09.300Z,13.94
2017-12-24T09:46:18.901Z,14.01
2017-12-24T09:47:29.061Z,13.94
2017-12-24T09:48:39.225Z,13.99
2017-12-24T09:49:49.425Z,14.08
2017-12-24T09:50:59.523Z,14.09
2017-12-24T09:52:09.619Z,14.16
2017-12-24T09:53:19.717Z,14.19
2017-12-24T09:54:29.878Z,14.2
2017-12-24T09:55:39.966Z,14.15
2017-12-24T09:56:50.197Z,14.21
2017-12-24T09:58:00.038Z,14.26
2017-12-24T09:59:10.171Z,14.28
2017-12-24T10:00:20.266Z,14.34
2017-12-24T10:01:30.338Z,14.33
2017-12-24T10:02:40.444Z,14.39
2017-12-24T10:03:50.283Z,14.44
2017-12-24T10:05:01.877Z,14.42
2017-12-24T10:06:11.988Z,14.51
2017-12-24T10:07:22.122Z,14.51
2017-12-24T10:08:32.246Z,14.48
2017-12-24T10:09:42.350Z,14.63
2017-12-24T10:10:52.509Z,14.57
2017-12-24T10:12:02.092Z,14.6
2017-12-24T10:13:11.676Z,14.66
2017-12-24T10:14:21.773Z,14.63
2017-12-24T10:15:31.892Z,14.7
2017-12-24T10:16:41.791Z,14.67
2017-12-24T10:17:51.865Z,14.82
2017-12-24T10:19:01.674Z,14.71
2017-12-24T10:20:11.516Z,14.79
2017-12-24T10:21:21.607Z,14.86
2017-12-24T10:22:31.752Z,14.9
2017-12-24T10:23:41.612Z,14.9
2017-12-24T10:24:51.438Z,14.89
2017-12-24T10:26:01.284Z,14.97
2017-12-24T10:27:11.423Z,14.94
2017-12-24T10:28:21.531Z,14.93
2017-12-24T10:29:31.663Z,14.95
2017-12-24T10:30:42.658Z,15.01
2017-12-24T10:31:52.572Z,15.05
2017-12-24T10:33:02.671Z,15.18
2017-12-24T10:34:12.568Z,15.08
2017-12-24T10:35:22.445Z,15.04
2017-12-24T10:36:32.537Z,15.01
2017-12-24T10:37:42.620Z,15.08
2017-12-24T10:38:52.501Z,15
2017-12-24T10:40:02.579Z,15.07
2017-12-24T10:41:12.411Z,15.05
2017-12-24T10:42:22.513Z,15.1
2017-12-24T10:43:32.632Z,15.04
2017-12-24T10:44:42.721Z,15
2017-12-24T10:45:52.609Z,15.1
2017-12-24T10:47:02.466Z,15.1
2017-12-24T10:48:12.593Z,15.1
2017-12-24T10:49:22.718Z,15.22
2017-12-24T10:50:32.795Z,15.22
2017-12-24T10:51:42.907Z,15.31
2017-12-24T10:52:52.742Z,15.25
2017-12-24T10:54:02.575Z,15.27
2017-12-24T10:55:12.418Z,15.34
2017-12-24T10:56:22.532Z,15.31
2017-12-24T10:57:32.638Z,15.37
2017-12-24T10:58:42.738Z,15.38
2017-12-24T10:59:52.825Z,15.35
2017-12-24T11:01:02.895Z,15.34
2017-12-24T11:02:13.054Z,15.49
2017-12-24T11:03:23.148Z,15.49
2017-12-24T11:04:33.006Z,15.44
2017-12-24T11:05:43.090Z,15.47
2017-12-24T11:06:53.191Z,15.52
2017-12-24T11:08:03.299Z,15.56
2017-12-24T11:09:13.115Z,15.63
2017-12-24T11:10:23.214Z,15.62
2017-12-24T11:11:33.407Z,15.58
2017-12-24T11:12:43.228Z,15.63
2017-12-24T11:13:53.314Z,15.63
2017-12-24T11:15:03.462Z,15.58
2017-12-24T11:16:13.590Z,15.59
2017-12-24T11:17:24.388Z,15.6
2017-12-24T11:18:34.209Z,15.65
2017-12-24T11:19:44.058Z,15.65
2017-12-24T11:20:54.197Z,15.7
2017-12-24T11:22:04.034Z,15.78
2017-12-24T11:23:14.124Z,15.65
2017-12-24T11:24:24.291Z,15.65
2017-12-24T11:25:34.093Z,15.68
2017-12-24T11:26:44.169Z,15.68
2017-12-24T11:27:54.236Z,15.73
2017-12-24T11:29:04.296Z,15.74
2017-12-24T11:30:14.403Z,15.74
2017-12-24T11:31:24.453Z,15.7
2017-12-24T11:32:34.565Z,15.68
2017-12-24T11:33:44.634Z,15.74
2017-12-24T11:34:54.680Z,15.86
2017-12-24T11:36:04.469Z,15.83
2017-12-24T11:37:14.269Z,15.86
2017-12-24T11:38:24.076Z,15.86
2017-12-24T11:39:34.225Z,15.91
2017-12-24T11:40:44.302Z,15.86
2017-12-24T11:41:54.100Z,15.93
2017-12-24T11:43:04.171Z,15.91
2017-12-24T11:44:14.238Z,15.88
2017-12-24T11:45:24.319Z,15.98
2017-12-24T11:46:34.392Z,15.96
2017-12-24T11:47:44.204Z,15.99
2017-12-24T11:48:54.300Z,15.93
2017-12-24T11:50:04.350Z,15.84
2017-12-24T11:51:14.423Z,15.88
2017-12-24T11:52:23.970Z,15.95
2017-12-24T11:53:34.033Z,15.89
2017-12-24T11:54:43.828Z,15.86
2017-12-24T11:55:53.876Z,15.88
2017-12-24T11:57:03.956Z,15.83
2017-12-24T11:58:14.019Z,15.83
2017-12-24T11:59:23.810Z,15.88
2017-12-24T12:00:33.600Z,15.84
2017-12-24T12:01:43.712Z,15.89
2017-12-24T12:02:53.768Z,15.86
2017-12-24T12:04:03.822Z,15.84
2017-12-24T12:05:14.400Z,15.91
2017-12-24T12:06:24.455Z,15.98
2017-12-24T12:07:34.610Z,15.84
2017-12-24T12:08:44.417Z,15.86
2017-12-24T12:09:54.511Z,15.92
2017-12-24T12:11:04.588Z,15.91
2017-12-24T12:12:14.645Z,15.93
2017-12-24T12:13:24.746Z,15.93
2017-12-24T12:14:34.805Z,15.88
2017-12-24T12:15:44.621Z,15.77
2017-12-24T12:16:54.741Z,15.81
2017-12-24T12:18:04.570Z,15.78
2017-12-24T12:19:14.376Z,15.83
2017-12-24T12:20:24.457Z,15.86
2017-12-24T12:21:34.538Z,15.81
2017-12-24T12:22:44.361Z,15.88
2017-12-24T12:23:54.164Z,15.88
2017-12-24T12:25:04.280Z,15.88
2017-12-24T12:26:14.135Z,15.84
2017-12-24T12:27:23.956Z,15.78
2017-12-24T12:28:34.026Z,15.74
2017-12-24T12:29:43.575Z,15.67
2017-12-24T12:30:53.691Z,15.62
2017-12-24T12:32:03.781Z,15.6
2017-12-24T12:33:13.837Z,15.6
2017-12-24T12:34:23.629Z,15.62
2017-12-24T12:35:33.705Z,15.6
2017-12-24T12:36:43.813Z,15.53
2017-12-24T12:37:53.883Z,15.59
2017-12-24T12:39:03.937Z,15.56
2017-12-24T12:40:13.802Z,15.63
2017-12-24T12:41:23.871Z,15.59
2017-12-24T12:42:33.985Z,15.6
2017-12-24T12:43:43.780Z,15.55
2017-12-24T12:44:53.849Z,15.56
2017-12-24T12:46:03.921Z,15.62
2017-12-24T12:47:13.997Z,15.58
2017-12-24T12:48:23.885Z,15.4
2017-12-24T12:49:33.947Z,15.47
2017-12-24T12:50:44.049Z,15.37
2017-12-24T12:51:53.882Z,15.27
2017-12-24T12:53:04.001Z,15.23
2017-12-24T12:54:14.079Z,15.22
2017-12-24T12:55:24.140Z,15.3
2017-12-24T12:56:34.455Z,15.26
2017-12-24T12:57:44.553Z,15.23
2017-12-24T12:58:54.687Z,15.23
2017-12-24T13:00:04.744Z,15.16
2017-12-24T13:01:14.916Z,15.13
2017-12-24T13:02:24.986Z,15.16
2017-12-24T13:03:34.796Z,15.16
2017-12-24T13:04:44.880Z,15.23
2017-12-24T13:05:54.696Z,15.22
2017-12-24T13:07:04.769Z,15.13
2017-12-24T13:08:14.832Z,15.13
2017-12-24T13:09:24.627Z,15.1
2017-12-24T13:10:34.701Z,15.08
2017-12-24T13:11:44.825Z,15.02
2017-12-24T13:12:54.903Z,15.01
2017-12-24T13:14:04.698Z,14.85
2017-12-24T13:15:14.781Z,14.77
2017-12-24T13:16:24.881Z,14.79
2017-12-24T13:17:35.851Z,14.63
2017-12-24T13:18:45.649Z,14.69
2017-12-24T13:19:55.728Z,14.6
2017-12-24T13:21:05.789Z,14.59
2017-12-24T13:22:15.352Z,14.63
2017-12-24T13:23:25.408Z,14.59
2017-12-24T13:24:35.236Z,14.51
2017-12-24T13:25:45.791Z,14.51
2017-12-24T13:26:55.869Z,14.51
2017-12-24T13:28:05.938Z,14.44
2017-12-24T13:29:16.007Z,14.45
2017-12-24T13:30:25.825Z,14.39
2017-12-24T13:31:35.880Z,14.13
2017-12-24T13:32:45.427Z,13.91
2017-12-24T13:33:55.240Z,13.79
2017-12-24T13:35:05.363Z,13.55
2017-12-24T13:36:15.498Z,13.53
2017-12-24T13:37:25.544Z,13.5
2017-12-24T13:38:35.630Z,13.42
2017-12-24T13:39:45.739Z,13.27
2017-12-24T13:40:55.874Z,13.19
2017-12-24T13:42:05.936Z,13.07
2017-12-24T13:43:15.998Z,12.95
2017-12-24T13:44:26.134Z,12.8
2017-12-24T13:45:35.957Z,12.76
2017-12-24T13:46:46.162Z,12.73
2017-12-24T13:47:55.955Z,12.61
2017-12-24T13:49:05.750Z,12.53
2017-12-24T13:50:15.823Z,12.44
2017-12-24T13:51:27.230Z,12.47
2017-12-24T13:52:37.088Z,12.36
2017-12-24T13:53:47.169Z,12.31
2017-12-24T13:54:57.235Z,12.38
2017-12-24T13:56:07.318Z,12.29
2017-12-24T13:57:17.399Z,12.15
2017-12-24T13:58:27.214Z,12.11
2017-12-24T13:59:37.285Z,12.11
2017-12-24T14:00:47.081Z,12
2017-12-24T14:01:57.175Z,11.89
2017-12-24T14:03:07.233Z,12.01
2017-12-24T14:04:17.325Z,11.86
2017-12-24T14:05:27.383Z,11.82
2017-12-24T14:06:37.475Z,11.78
2017-12-24T14:07:47.284Z,11.76
2017-12-24T14:08:57.089Z,11.76
2017-12-24T14:10:07.213Z,11.71
2017-12-24T14:11:16.774Z,11.67
2017-12-24T14:12:26.841Z,11.64
2017-12-24T14:13:36.629Z,11.67
2017-12-24T14:14:46.715Z,11.61
2017-12-24T14:15:56.831Z,11.56
2017-12-24T14:17:06.920Z,11.48
2017-12-24T14:18:16.732Z,11.57
2017-12-24T14:19:26.800Z,11.51
2017-12-24T14:20:36.883Z,11.52
2017-12-24T14:21:46.954Z,11.38
2017-12-24T14:22:57.040Z,11.45
2017-12-24T14:24:07.133Z,11.46
2017-12-24T14:25:17.196Z,11.46
2017-12-24T14:26:27.277Z,11.43
2017-12-24T14:27:37.098Z,11.41
2017-12-24T14:28:47.163Z,11.39
2017-12-24T14:29:56.972Z,11.42
2017-12-24T14:31:07.021Z,11.38
2017-12-24T14:32:17.091Z,11.43
2017-12-24T14:33:27.185Z,11.35
2017-12-24T14:34:36.995Z,11.35
2017-12-24T14:35:47.091Z,11.34
2017-12-24T14:36:57.148Z,11.3
2017-12-24T14:38:07.236Z,11.38
2017-12-24T14:39:18.180Z,11.28
2017-12-24T14:40:28.248Z,11.34
2017-12-24T14:41:38.292Z,11.33
2017-12-24T14:42:48.365Z,11.26
2017-12-24T14:43:58.459Z,11.35
2017-12-24T14:45:08.292Z,11.21
2017-12-24T14:46:18.111Z,11.21
2017-12-24T14:47:27.918Z,11.21
2017-12-24T14:48:37.983Z,11.18
2017-12-24T14:49:48.046Z,11.13
2017-12-24T14:50:58.131Z,11.23
2017-12-24T14:52:07.951Z,11.28
2017-12-24T14:53:17.748Z,11.16
2017-12-24T14:54:27.573Z,11.18
2017-12-24T14:55:37.637Z,11.27
2017-12-24T14:56:47.453Z,11.13
2017-12-24T14:57:57.271Z,11.16
2017-12-24T14:59:07.429Z,11.2
2017-12-24T15:00:17.505Z,11.09
2017-12-24T15:01:27.586Z,11.18
2017-12-24T15:02:37.393Z,11.12
2017-12-24T15:03:46.938Z,11.15
2017-12-24T15:04:56.720Z,11.16
2017-12-24T15:06:06.251Z,11.16
2017-12-24T15:07:16.366Z,11.1
2017-12-24T15:08:26.192Z,11.08
2017-12-24T15:09:35.992Z,11.05
2017-12-24T15:10:45.790Z,11.12
2017-12-24T15:11:55.338Z,11.06
2017-12-24T15:13:05.404Z,11.06
2017-12-24T15:14:15.205Z,11.02
2017-12-24T15:15:25.277Z,11.09
2017-12-24T15:16:35.329Z,10.98
2017-12-24T15:17:45.133Z,10.95
2017-12-24T15:18:55.256Z,11.03
2017-12-24T15:20:05.335Z,10.97
2017-12-24T15:21:15.436Z,10.98
2017-12-24T15:22:25.502Z,10.97
2017-12-24T15:23:35.305Z,10.85
2017-12-24T15:24:45.131Z,10.98
2017-12-24T15:25:54.934Z,10.87
2017-12-24T15:27:04.992Z,10.85
2017-12-24T15:28:15.056Z,10.84
2017-12-24T15:29:25.113Z,10.9
2017-12-24T15:30:34.915Z,10.87
2017-12-24T15:31:45.010Z,10.88
2017-12-24T15:32:55.084Z,10.77
2017-12-24T15:34:04.880Z,10.84
2017-12-24T15:35:14.922Z,10.84
2017-12-24T15:36:24.995Z,10.83